createdAt,value
2022-07-31T00:00:12.119Z,13.89
2022-07-31T00:02:41.688Z,13.95
2022-07-31T00:05:09.064Z,14.14
2022-07-31T00:07:35.906Z,13.98
2022-07-31T00:10:03.554Z,14.03
2022-07-31T00:12:30.262Z,14.13
2022-07-31T00:14:56.962Z,13.82
2022-07-31T00:17:23.643Z,13.95
2022-07-31T00:19:50.410Z,14.34
2022-07-31T00:22:16.959Z,13.69
2022-07-31T00:24:43.612Z,14.08
2022-07-31T00:27:10.377Z,14.06
2022-07-31T00:29:38.104Z,13.75
2022-07-31T00:32:04.977Z,13.80
2022-07-31T00:34:31.969Z,13.92
2022-07-31T00:36:58.654Z,13.43
2022-07-31T00:39:25.388Z,13.67
2022-07-31T00:41:52.129Z,13.78
2022-07-31T00:44:19.074Z,14.03
2022-07-31T00:46:45.637Z,13.56
2022-07-31T00:49:12.529Z,13.90
2022-07-31T00:51:40.190Z,14.01
2022-07-31T00:54:08.288Z,14.03
2022-07-31T00:56:35.309Z,13.56
2022-07-31T00:59:02.485Z,13.94
2022-07-31T01:01:29.301Z,13.67
2022-07-31T01:03:56.085Z,13.88
2022-07-31T01:06:22.901Z,13.55
2022-07-31T01:08:49.819Z,13.79
2022-07-31T01:11:30.574Z,13.66
2022-07-31T01:14:05.334Z,13.46
2022-07-31T01:16:39.875Z,13.92
2022-07-31T01:19:22.310Z,13.44
2022-07-31T01:22:34.221Z,13.86
2022-07-31T01:25:22.559Z,13.68
2022-07-31T01:28:37.243Z,13.74
2022-07-31T01:31:25.956Z,13.25
2022-07-31T01:34:01.869Z,13.36
2022-07-31T01:36:33.974Z,13.61
2022-07-31T01:39:02.618Z,13.02
2022-07-31T01:41:34.538Z,13.72
2022-07-31T01:44:04.244Z,13.70
2022-07-31T01:46:37.268Z,13.20
2022-07-31T01:49:12.413Z,13.69
2022-07-31T01:51:43.082Z,13.30
2022-07-31T01:54:11.655Z,13.26
2022-07-31T01:56:40.338Z,12.97
2022-07-31T01:59:20.118Z,13.40
2022-07-31T02:02:07.138Z,13.67
2022-07-31T02:04:37.710Z,13.50
2022-07-31T02:07:06.473Z,13.13
2022-07-31T02:09:35.177Z,13.77
2022-07-31T02:12:03.939Z,13.85
2022-07-31T02:14:36.516Z,13.37
2022-07-31T02:17:03.962Z,13.71
2022-07-31T02:19:59.809Z,13.36
2022-07-31T02:22:27.319Z,13.39
2022-07-31T02:24:54.264Z,13.06
2022-07-31T02:27:54.024Z,12.18
2022-07-31T02:30:13.406Z,13.82
2022-07-31T02:32:41.942Z,13.21
2022-07-31T02:35:09.772Z,13.81
2022-07-31T02:37:38.911Z,13.88
2022-07-31T02:40:07.914Z,13.35
2022-07-31T02:42:35.241Z,12.84
2022-07-31T02:45:02.852Z,13.57
2022-07-31T02:47:29.924Z,13.64
2022-07-31T02:49:59.548Z,13.28
2022-07-31T02:52:26.638Z,13.88
2022-07-31T02:54:53.802Z,13.18
2022-07-31T02:57:20.519Z,13.25
2022-07-31T02:59:47.226Z,13.28
2022-07-31T03:02:14.420Z,12.93
2022-07-31T03:04:43.446Z,13.15
2022-07-31T03:07:10.259Z,13.52
2022-07-31T03:09:37.187Z,13.69
2022-07-31T03:12:32.926Z,13.19
2022-07-31T03:15:01.146Z,13.06
2022-07-31T03:17:38.227Z,13.05
2022-07-31T03:20:11.287Z,13.03
2022-07-31T03:22:38.988Z,13.16
2022-07-31T03:25:06.892Z,13.24
2022-07-31T03:27:34.323Z,13.64
2022-07-31T03:30:01.190Z,14.01
2022-07-31T03:32:27.770Z,13.50
2022-07-31T03:34:54.439Z,13.51
2022-07-31T03:37:21.122Z,13.71
2022-07-31T03:39:47.923Z,13.24
2022-07-31T03:42:19.110Z,13.41
2022-07-31T03:44:48.256Z,13.46
2022-07-31T03:47:16.452Z,12.09
2022-07-31T03:49:43.897Z,13.85
2022-07-31T03:52:12.616Z,13.57
2022-07-31T03:54:40.369Z,13.37
2022-07-31T03:57:21.237Z,13.54
2022-07-31T03:59:54.725Z,13.71
2022-07-31T04:02:21.445Z,13.53
2022-07-31T04:04:53.673Z,13.65
2022-07-31T04:07:20.479Z,13.36
2022-07-31T04:09:47.265Z,13.85
2022-07-31T04:12:15.292Z,14.07
2022-07-31T04:14:42.734Z,13.57
2022-07-31T04:17:09.946Z,13.78
2022-07-31T04:19:36.643Z,13.70
2022-07-31T04:22:04.646Z,14.29
2022-07-31T04:24:32.834Z,14.10
2022-07-31T04:27:22.260Z,14.03
2022-07-31T04:29:48.998Z,13.93
2022-07-31T04:32:15.866Z,14.20
2022-07-31T04:34:48.175Z,14.09
2022-07-31T04:37:15.002Z,14.05
2022-07-31T04:39:41.711Z,14.17
2022-07-31T04:42:11.472Z,14.37
2022-07-31T04:44:38.426Z,14.04
2022-07-31T04:47:07.312Z,14.46
2022-07-31T04:49:38.057Z,14.04
2022-07-31T04:52:05.405Z,13.77
2022-07-31T04:54:32.999Z,13.85
2022-07-31T04:57:00.182Z,13.55
2022-07-31T04:59:58.200Z,13.86
2022-07-31T05:02:14.021Z,13.69
2022-07-31T05:04:40.631Z,14.22
2022-07-31T05:07:07.245Z,14.14
2022-07-31T05:09:33.876Z,14.11
2022-07-31T05:12:05.971Z,13.95
2022-07-31T05:14:33.058Z,14.00
2022-07-31T05:16:59.820Z,13.93
2022-07-31T05:19:34.186Z,13.84
2022-07-31T05:22:36.624Z,14.03
2022-07-31T05:25:22.713Z,14.06
2022-07-31T05:27:50.083Z,14.01
2022-07-31T05:30:17.028Z,14.07
2022-07-31T05:32:56.478Z,14.50
2022-07-31T05:35:23.086Z,14.01
2022-07-31T05:37:49.758Z,14.67
2022-07-31T05:40:17.934Z,14.29
2022-07-31T05:43:03.480Z,14.54
2022-07-31T05:45:48.461Z,14.43
2022-07-31T05:48:16.389Z,14.90
2022-07-31T05:50:43.877Z,14.32
2022-07-31T05:53:11.742Z,14.50
2022-07-31T05:55:56.954Z,14.63
2022-07-31T05:58:33.342Z,14.60
2022-07-31T06:01:00.756Z,14.61
2022-07-31T06:03:28.048Z,14.55
2022-07-31T06:06:03.732Z,14.55
2022-07-31T06:08:30.475Z,14.96
2022-07-31T06:10:57.375Z,14.94
2022-07-31T06:13:25.699Z,14.82
2022-07-31T06:15:53.252Z,15.34
2022-07-31T06:18:20.818Z,15.41
2022-07-31T06:20:48.003Z,15.23
2022-07-31T06:23:29.633Z,15.24
2022-07-31T06:26:13.615Z,15.42
2022-07-31T06:28:48.642Z,15.50
2022-07-31T06:31:21.841Z,15.97
2022-07-31T06:33:51.243Z,15.95
2022-07-31T06:36:22.317Z,16.20
2022-07-31T06:38:59.351Z,16.11
2022-07-31T06:41:26.117Z,16.34
2022-07-31T06:43:54.707Z,16.41
2022-07-31T06:46:48.878Z,16.46
2022-07-31T06:49:34.977Z,16.22
2022-07-31T06:52:02.225Z,16.53
2022-07-31T06:54:32.322Z,16.49
2022-07-31T06:56:59.270Z,16.76
2022-07-31T06:59:40.229Z,16.37
2022-07-31T07:02:08.453Z,16.60
2022-07-31T07:05:04.674Z,17.03
2022-07-31T07:07:22.505Z,17.23
2022-07-31T07:09:50.728Z,17.66
2022-07-31T07:12:33.463Z,17.52
2022-07-31T07:15:01.849Z,17.74
2022-07-31T07:17:29.875Z,17.65
2022-07-31T07:19:57.241Z,18.19
2022-07-31T07:22:31.806Z,18.35
2022-07-31T07:25:01.348Z,18.70
2022-07-31T07:27:28.383Z,18.62
2022-07-31T07:29:55.774Z,18.80
2022-07-31T07:32:22.364Z,19.04
2022-07-31T07:34:49.185Z,19.14
2022-07-31T07:37:47.852Z,19.30
2022-07-31T07:40:15.263Z,19.03
2022-07-31T07:42:43.348Z,19.21
2022-07-31T07:45:10.980Z,19.84
2022-07-31T07:47:53.711Z,19.49
2022-07-31T07:50:29.325Z,20.29
2022-07-31T07:53:28.982Z,20.24
2022-07-31T07:56:25.351Z,20.18
2022-07-31T07:59:21.612Z,19.68
2022-07-31T08:02:08.805Z,20.93
2022-07-31T08:04:36.569Z,20.43
2022-07-31T08:07:03.588Z,21.25
2022-07-31T08:09:38.967Z,20.79
2022-07-31T08:12:19.558Z,20.84
2022-07-31T08:15:06.771Z,20.90
2022-07-31T08:17:33.702Z,21.15
2022-07-31T08:20:00.453Z,21.14
2022-07-31T08:22:27.491Z,21.41
2022-07-31T08:24:54.320Z,21.30
2022-07-31T08:27:21.629Z,21.16
2022-07-31T08:29:48.750Z,21.86
2022-07-31T08:32:18.708Z,22.46
2022-07-31T08:35:04.086Z,21.79
2022-07-31T08:37:51.094Z,22.49
2022-07-31T08:40:19.846Z,22.60
2022-07-31T08:42:46.735Z,22.71
2022-07-31T08:45:14.101Z,23.51
2022-07-31T08:47:47.941Z,23.44
2022-07-31T08:50:20.697Z,23.23
2022-07-31T08:52:50.018Z,23.75
2022-07-31T08:55:57.027Z,22.97
2022-07-31T08:58:22.852Z,21.91
2022-07-31T09:00:51.439Z,22.87
2022-07-31T09:03:18.339Z,23.42
2022-07-31T09:05:45.024Z,23.03
2022-07-31T09:08:15.247Z,23.32
2022-07-31T09:10:49.980Z,23.93
2022-07-31T09:13:18.999Z,23.14
2022-07-31T09:15:46.960Z,23.37
2022-07-31T09:18:21.707Z,22.74
2022-07-31T09:20:56.638Z,23.32
2022-07-31T09:23:25.434Z,23.02
2022-07-31T09:25:57.500Z,23.08
2022-07-31T09:28:38.863Z,22.66
2022-07-31T09:31:07.838Z,23.47
2022-07-31T09:33:52.775Z,23.26
2022-07-31T09:36:37.978Z,23.71
2022-07-31T09:39:27.842Z,23.72
2022-07-31T09:42:16.434Z,22.72
2022-07-31T09:44:51.560Z,23.10
2022-07-31T09:47:22.890Z,24.04
2022-07-31T09:49:58.808Z,24.05
2022-07-31T09:52:28.289Z,23.87
2022-07-31T09:55:16.225Z,24.69
2022-07-31T09:57:57.553Z,24.79
2022-07-31T10:00:27.878Z,25.10
2022-07-31T10:02:57.316Z,25.12
2022-07-31T10:05:28.104Z,24.65
2022-07-31T10:08:06.079Z,24.75
2022-07-31T10:11:04.250Z,24.74
2022-07-31T10:13:46.643Z,24.85
2022-07-31T10:16:14.314Z,24.39
2022-07-31T10:18:57.265Z,25.42
2022-07-31T10:22:10.416Z,25.35
2022-07-31T10:24:50.210Z,25.44
2022-07-31T10:27:21.020Z,25.00
2022-07-31T10:29:59.827Z,25.14
2022-07-31T10:32:36.600Z,24.80
2022-07-31T10:35:31.996Z,24.94
2022-07-31T10:38:42.322Z,24.85
2022-07-31T10:41:52.349Z,24.61
2022-07-31T10:44:29.777Z,23.76
2022-07-31T10:47:18.655Z,24.33
2022-07-31T10:50:04.927Z,24.15
2022-07-31T10:53:16.382Z,24.49
2022-07-31T10:56:07.107Z,24.37
2022-07-31T10:58:57.651Z,24.55
2022-07-31T11:01:52.827Z,24.66
2022-07-31T11:04:43.068Z,24.85
2022-07-31T11:07:33.356Z,24.77
2022-07-31T11:10:17.708Z,25.10
2022-07-31T11:13:07.957Z,25.19
2022-07-31T11:16:07.595Z,25.40
2022-07-31T11:19:11.091Z,24.93
2022-07-31T11:21:40.680Z,25.79
2022-07-31T11:24:14.459Z,25.63
2022-07-31T11:26:50.458Z,25.49
2022-07-31T11:29:59.152Z,25.42
2022-07-31T11:32:25.875Z,25.43
2022-07-31T11:34:57.431Z,25.52
2022-07-31T11:37:25.606Z,25.71
2022-07-31T11:39:55.980Z,25.61
2022-07-31T11:42:28.199Z,25.71
2022-07-31T11:45:10.761Z,25.69
2022-07-31T11:48:11.169Z,25.19
2022-07-31T11:50:43.409Z,24.59
2022-07-31T11:53:12.861Z,24.04
2022-07-31T11:55:57.662Z,24.57
2022-07-31T11:58:26.359Z,24.34
2022-07-31T12:00:54.046Z,24.77
2022-07-31T12:03:25.708Z,24.58
2022-07-31T12:05:52.930Z,24.47
2022-07-31T12:08:20.420Z,24.80
2022-07-31T12:10:48.185Z,24.46
2022-07-31T12:13:16.599Z,24.95
2022-07-31T12:16:03.408Z,25.60
2022-07-31T12:18:32.667Z,25.06
2022-07-31T12:21:02.365Z,24.84
2022-07-31T12:23:45.900Z,26.09
2022-07-31T12:26:22.407Z,25.94
2022-07-31T12:29:06.126Z,25.56
2022-07-31T12:31:51.141Z,23.93
2022-07-31T12:34:27.350Z,25.80
2022-07-31T12:37:04.091Z,25.66
2022-07-31T12:39:54.775Z,25.65
2022-07-31T12:42:35.275Z,25.29
2022-07-31T12:45:18.380Z,24.65
2022-07-31T12:47:51.996Z,24.95
2022-07-31T12:50:30.116Z,25.52
2022-07-31T12:53:02.131Z,25.62
2022-07-31T12:55:30.477Z,25.81
2022-07-31T12:57:57.122Z,25.91
2022-07-31T13:00:25.410Z,26.21
2022-07-31T13:02:54.073Z,25.91
2022-07-31T13:05:21.692Z,25.40
2022-07-31T13:07:49.391Z,26.03
2022-07-31T13:10:20.854Z,25.64
2022-07-31T13:12:49.005Z,25.56
2022-07-31T13:15:20.005Z,25.42
2022-07-31T13:17:50.257Z,25.43
2022-07-31T13:20:17.796Z,24.94
2022-07-31T13:22:44.438Z,24.85
2022-07-31T13:25:11.128Z,24.88
2022-07-31T13:27:37.768Z,24.31
2022-07-31T13:30:05.472Z,25.17
2022-07-31T13:32:32.324Z,25.09
2022-07-31T13:35:26.861Z,25.18
2022-07-31T13:37:45.802Z,25.27
2022-07-31T13:40:12.491Z,25.02
2022-07-31T13:42:39.055Z,24.79
2022-07-31T13:45:08.367Z,25.08
2022-07-31T13:47:51.479Z,25.31
2022-07-31T13:50:19.465Z,25.39
2022-07-31T13:52:46.078Z,24.85
2022-07-31T13:55:12.759Z,24.50
2022-07-31T13:57:39.376Z,24.48
2022-07-31T14:00:06.704Z,24.65
2022-07-31T14:02:33.423Z,25.38
2022-07-31T14:05:00.237Z,25.49
2022-07-31T14:07:48.100Z,25.39
2022-07-31T14:10:19.862Z,25.42
2022-07-31T14:12:47.316Z,25.02
2022-07-31T14:15:13.964Z,25.07
2022-07-31T14:17:40.717Z,25.11
2022-07-31T14:20:07.863Z,25.59
2022-07-31T14:22:34.631Z,25.73
2022-07-31T14:25:01.335Z,25.54
2022-07-31T14:27:28.024Z,25.27
2022-07-31T14:29:54.703Z,26.28
2022-07-31T14:32:21.468Z,25.84
2022-07-31T14:34:49.254Z,26.12
2022-07-31T14:37:15.959Z,26.40
2022-07-31T14:39:43.153Z,25.55
2022-07-31T14:42:10.607Z,25.86
2022-07-31T14:44:37.243Z,26.27
2022-07-31T14:47:04.609Z,26.30
2022-07-31T14:50:06.692Z,25.77
2022-07-31T14:52:18.938Z,26.31
2022-07-31T14:54:45.485Z,26.08
2022-07-31T14:57:12.340Z,26.15
2022-07-31T14:59:46.645Z,26.31
2022-07-31T15:02:13.184Z,26.31
2022-07-31T15:04:39.770Z,26.56
2022-07-31T15:07:33.629Z,27.00
2022-07-31T15:09:53.048Z,25.54
2022-07-31T15:12:19.671Z,26.74
2022-07-31T15:14:46.455Z,26.40
2022-07-31T15:17:13.008Z,25.95
2022-07-31T15:19:39.738Z,26.41
2022-07-31T15:22:15.451Z,26.13
2022-07-31T15:24:48.566Z,25.21
2022-07-31T15:27:20.186Z,26.09
2022-07-31T15:30:04.457Z,25.51
2022-07-31T15:32:37.799Z,25.36
2022-07-31T15:35:07.957Z,25.36
2022-07-31T15:37:36.735Z,25.43
2022-07-31T15:40:08.596Z,25.43
2022-07-31T15:42:37.173Z,25.27
2022-07-31T15:45:04.104Z,23.18
2022-07-31T15:47:30.944Z,24.90
2022-07-31T15:49:57.542Z,24.82
2022-07-31T15:52:24.736Z,24.22
2022-07-31T15:54:52.388Z,25.07
2022-07-31T15:57:21.079Z,25.14
2022-07-31T15:59:48.749Z,24.37
2022-07-31T16:02:15.612Z,23.14
2022-07-31T16:04:51.591Z,25.17
2022-07-31T16:08:32.496Z,24.65
2022-07-31T16:10:17.921Z,24.55
2022-07-31T16:12:48.669Z,24.31
2022-07-31T16:15:18.336Z,23.95
2022-07-31T16:17:45.100Z,24.68
2022-07-31T16:20:25.467Z,24.20
2022-07-31T16:22:58.537Z,24.86
2022-07-31T16:25:26.062Z,24.82
2022-07-31T16:27:53.203Z,24.47
2022-07-31T16:30:20.748Z,24.54
2022-07-31T16:32:47.834Z,24.41
2022-07-31T16:35:14.520Z,24.98
2022-07-31T16:37:51.111Z,24.47
2022-07-31T16:40:29.324Z,24.57
2022-07-31T16:43:47.457Z,24.54
2022-07-31T16:45:51.049Z,24.64
2022-07-31T16:48:18.177Z,24.76
2022-07-31T16:50:45.850Z,24.84
2022-07-31T16:54:11.077Z,24.38
2022-07-31T16:56:06.674Z,24.94
2022-07-31T16:58:33.324Z,23.97
2022-07-31T17:01:00.221Z,25.15
2022-07-31T17:03:59.173Z,24.61
2022-07-31T17:06:13.809Z,24.12
2022-07-31T17:08:40.478Z,24.12
2022-07-31T17:11:07.125Z,23.62
2022-07-31T17:13:33.873Z,23.93
2022-07-31T17:16:00.653Z,23.56
2022-07-31T17:18:27.442Z,23.21
2022-07-31T17:20:55.801Z,22.49
2022-07-31T17:23:43.122Z,22.60
2022-07-31T17:26:21.072Z,22.00
2022-07-31T17:28:48.624Z,24.26
2022-07-31T17:31:15.262Z,23.68
2022-07-31T17:33:49.621Z,24.11
2022-07-31T17:36:26.946Z,24.54
2022-07-31T17:38:53.480Z,23.94
2022-07-31T17:41:25.122Z,23.28
2022-07-31T17:43:54.342Z,24.37
2022-07-31T17:46:34.245Z,23.76
2022-07-31T17:49:06.113Z,23.64
2022-07-31T17:51:32.913Z,23.65
2022-07-31T17:53:59.912Z,23.28
2022-07-31T17:56:27.261Z,24.03
2022-07-31T17:58:54.103Z,23.90
2022-07-31T18:01:24.383Z,22.81
2022-07-31T18:03:54.091Z,23.25
2022-07-31T18:06:20.890Z,23.41
2022-07-31T18:08:47.562Z,23.30
2022-07-31T18:11:14.304Z,23.23
2022-07-31T18:13:48.566Z,23.14
2022-07-31T18:16:21.103Z,22.53
2022-07-31T18:18:50.314Z,22.02
2022-07-31T18:21:20.535Z,22.39
2022-07-31T18:23:47.648Z,22.41
2022-07-31T18:26:14.766Z,22.12
2022-07-31T18:28:41.529Z,22.87
2022-07-31T18:31:12.835Z,22.52
2022-07-31T18:33:54.970Z,23.09
2022-07-31T18:36:21.643Z,22.24
2022-07-31T18:38:48.393Z,22.27
2022-07-31T18:41:14.956Z,22.58
2022-07-31T18:43:41.635Z,21.98
2022-07-31T18:46:08.205Z,22.19
2022-07-31T18:48:34.916Z,22.30
2022-07-31T18:51:04.817Z,21.97
2022-07-31T18:53:32.809Z,22.36
2022-07-31T18:55:59.450Z,21.80
2022-07-31T18:58:26.457Z,21.05
2022-07-31T19:00:55.125Z,21.59
2022-07-31T19:03:23.207Z,20.95
2022-07-31T19:05:49.875Z,21.19
2022-07-31T19:08:16.648Z,21.40
2022-07-31T19:10:43.209Z,21.06
2022-07-31T19:13:19.003Z,20.96
2022-07-31T19:15:50.939Z,21.29
2022-07-31T19:18:17.830Z,21.17
2022-07-31T19:21:00.295Z,20.35
2022-07-31T19:23:35.926Z,20.87
2022-07-31T19:26:04.735Z,19.73
2022-07-31T19:28:32.772Z,20.45
2022-07-31T19:30:59.796Z,20.41
2022-07-31T19:33:26.887Z,20.62
2022-07-31T19:36:00.307Z,20.97
2022-07-31T19:38:29.981Z,20.07
2022-07-31T19:40:57.107Z,20.86
2022-07-31T19:43:23.916Z,21.11
2022-07-31T19:45:57.712Z,20.48
2022-07-31T19:48:29.068Z,20.88
2022-07-31T19:50:55.711Z,19.54
2022-07-31T19:53:22.413Z,20.40
2022-07-31T19:55:49.149Z,20.21
2022-07-31T19:58:18.350Z,19.59
2022-07-31T20:00:45.065Z,16.58
2022-07-31T20:03:32.437Z,20.23
2022-07-31T20:06:02.243Z,19.62
2022-07-31T20:08:34.814Z,19.50
2022-07-31T20:11:07.275Z,20.19
2022-07-31T20:13:42.720Z,20.18
2022-07-31T20:16:37.259Z,19.87
2022-07-31T20:19:07.579Z,19.54
2022-07-31T20:21:35.009Z,20.28
2022-07-31T20:27:02.533Z,20.16
2022-07-31T20:29:44.081Z,19.45
2022-07-31T20:32:16.559Z,16.71
2022-07-31T20:34:48.499Z,20.25
2022-07-31T20:37:22.619Z,20.19
2022-07-31T20:39:52.058Z,18.27
2022-07-31T20:42:18.776Z,19.30
2022-07-31T20:44:48.539Z,20.01
2022-07-31T20:47:24.702Z,20.02
2022-07-31T20:49:52.620Z,19.54
2022-07-31T20:52:19.645Z,19.58
2022-07-31T20:54:59.460Z,20.23
2022-07-31T20:57:31.668Z,19.96
2022-07-31T21:00:01.704Z,19.05
2022-07-31T21:02:32.395Z,19.93
2022-07-31T21:04:59.090Z,19.41
2022-07-31T21:07:38.054Z,19.70
2022-07-31T21:10:08.024Z,19.43
2022-07-31T21:12:35.411Z,19.60
2022-07-31T21:15:05.059Z,19.31
2022-07-31T21:18:01.544Z,19.26
2022-07-31T21:20:32.899Z,19.71
2022-07-31T21:23:23.769Z,19.71
2022-07-31T21:25:56.548Z,19.45
2022-07-31T21:28:37.400Z,19.42
2022-07-31T21:31:07.533Z,19.16
2022-07-31T21:33:41.295Z,18.96
2022-07-31T21:36:12.891Z,18.66
2022-07-31T21:38:43.167Z,18.66
2022-07-31T21:41:10.189Z,19.25
2022-07-31T21:43:58.672Z,18.89
2022-07-31T21:46:44.010Z,19.27
2022-07-31T21:49:18.110Z,18.98
2022-07-31T21:51:48.483Z,19.28
2022-07-31T21:54:15.137Z,19.02
2022-07-31T21:56:44.749Z,18.71
2022-07-31T21:59:11.535Z,18.51
2022-07-31T22:01:41.590Z,19.59
2022-07-31T22:04:34.494Z,19.17
2022-07-31T22:07:01.312Z,18.70
2022-07-31T22:09:28.124Z,18.83
2022-07-31T22:12:05.694Z,18.89
2022-07-31T22:14:32.645Z,18.61
2022-07-31T22:16:59.199Z,18.29
2022-07-31T22:19:26.151Z,18.79
2022-07-31T22:21:53.304Z,18.17
2022-07-31T22:24:20.039Z,17.50
2022-07-31T22:26:47.602Z,17.52
2022-07-31T22:29:18.382Z,17.53
2022-07-31T22:31:49.828Z,17.64
2022-07-31T22:34:37.198Z,18.06
2022-07-31T22:37:05.355Z,17.98
2022-07-31T22:39:32.342Z,17.86
2022-07-31T22:42:00.313Z,17.89
2022-07-31T22:44:27.333Z,18.00
2022-07-31T22:46:56.167Z,18.04
2022-07-31T22:49:22.819Z,18.34
2022-07-31T22:51:49.521Z,17.76
2022-07-31T22:54:16.215Z,18.00
2022-07-31T22:56:42.809Z,17.95
2022-07-31T22:59:09.360Z,17.86
2022-07-31T23:01:36.133Z,17.76
2022-07-31T23:04:04.076Z,17.82
2022-07-31T23:06:32.744Z,17.93
2022-07-31T23:08:59.983Z,17.59
2022-07-31T23:11:26.688Z,17.44
2022-07-31T23:13:54.794Z,17.24
2022-07-31T23:16:21.586Z,17.27
2022-07-31T23:18:49.923Z,17.10
2022-07-31T23:21:17.238Z,17.18
2022-07-31T23:23:48.004Z,17.14
2022-07-31T23:26:19.492Z,16.83
2022-07-31T23:28:46.845Z,17.22
2022-07-31T23:31:14.303Z,17.32
2022-07-31T23:33:41.163Z,17.19
2022-07-31T23:36:08.045Z,17.07
2022-07-31T23:38:34.676Z,17.21
2022-07-31T23:41:01.464Z,17.45
2022-07-31T23:43:28.178Z,17.23
2022-07-31T23:45:55.052Z,17.40
2022-07-31T23:48:21.785Z,17.80
2022-07-31T23:50:52.159Z,17.86
2022-07-31T23:53:18.758Z,17.68
2022-07-31T23:55:45.443Z,17.32
2022-07-31T23:58:12.098Z,17.20
